Time;durP1;ratioP1;P1;durP2;ratioP2;P2;SDS_P1;SDS_P2;PMS_P1;PMS_P2;Temp;Humidity;BMP_temperature;BMP_pressure;BME280_temperature;BME280_humidity;BME280_pressure;Samples;Min_cycle;Max_cycle;Signal;HPM_P1;HPM_P2
2023/05/28 00:01:56;;;;;;;15.93;6.25;;;12.70;99.90;;;;;;5005277;28;20452;-82
2023/05/28 00:04:24;;;;;;;14.40;5.20;;;12.70;99.90;;;;;;5021294;28;20120;-81
2023/05/28 00:06:52;;;;;;;16.02;5.40;;;12.60;99.90;;;;;;5005315;28;20120;-82
2023/05/28 00:09:19;;;;;;;16.70;5.60;;;12.60;99.90;;;;;;5005731;28;20127;-81
2023/05/28 00:11:45;;;;;;;13.60;5.70;;;12.60;99.90;;;;;;5004844;28;20077;-81
2023/05/28 00:14:11;;;;;;;13.15;5.18;;;12.50;99.90;;;;;;5021247;28;20041;-81
2023/05/28 00:16:37;;;;;;;15.68;5.85;;;12.50;99.90;;;;;;5004906;28;20044;-81
2023/05/28 00:19:04;;;;;;;15.13;5.93;;;12.40;99.90;;;;;;5020413;28;20473;-81
2023/05/28 00:21:32;;;;;;;21.17;6.45;;;12.40;99.90;;;;;;5021123;28;20037;-82
2023/05/28 00:23:58;;;;;;;11.27;5.03;;;12.30;99.90;;;;;;5005018;28;20040;-82
2023/05/28 00:26:25;;;;;;;15.98;6.20;;;12.40;99.90;;;;;;5004459;28;20040;-82
2023/05/28 00:28:51;;;;;;;16.15;5.50;;;12.40;99.90;;;;;;5004312;28;20068;-82
2023/05/28 00:31:17;;;;;;;15.02;5.32;;;12.40;99.90;;;;;;5004143;28;20477;-81
2023/05/28 00:33:45;;;;;;;14.68;5.40;;;12.40;99.90;;;;;;5004434;28;20051;-81
2023/05/28 00:36:15;;;;;;;17.25;5.70;;;12.50;99.90;;;;;;5037122;28;20040;-82
2023/05/28 00:38:41;;;;;;;11.02;5.47;;;12.50;99.90;;;;;;5020519;28;20044;-82
2023/05/28 00:41:06;;;;;;;13.40;5.05;;;12.50;99.90;;;;;;5020507;28;20032;-82
2023/05/28 00:43:32;;;;;;;16.75;5.13;;;12.50;99.90;;;;;;5020790;28;20060;-82
2023/05/28 00:46:03;;;;;;;13.18;5.30;;;12.50;99.90;;;;;;5020501;28;20053;-82
2023/05/28 00:48:30;;;;;;;9.90;5.03;;;12.50;99.90;;;;;;5021554;28;20503;-81
2023/05/28 00:50:57;;;;;;;15.80;5.88;;;12.50;99.90;;;;;;5007396;28;20079;-81
2023/05/28 00:53:23;;;;;;;14.40;5.47;;;12.50;99.90;;;;;;5037099;28;20067;-82
2023/05/28 00:55:50;;;;;;;17.02;5.07;;;12.50;99.90;;;;;;5020428;28;20037;-82
2023/05/28 00:58:19;;;;;;;12.95;4.75;;;12.50;99.90;;;;;;5004149;28;20036;-81
2023/05/28 01:00:45;;;;;;;14.20;5.18;;;12.40;99.90;;;;;;5004363;28;20041;-81
2023/05/28 01:03:11;;;;;;;14.35;5.07;;;12.40;99.90;;;;;;5020281;28;20045;-82
2023/05/28 01:05:37;;;;;;;16.08;5.22;;;12.30;99.90;;;;;;5020137;28;20048;-81
2023/05/28 01:08:05;;;;;;;17.50;5.90;;;12.30;99.90;;;;;;5020519;28;20044;-82
2023/05/28 01:10:31;;;;;;;15.13;5.43;;;12.20;99.90;;;;;;5003797;28;20485;-81
2023/05/28 01:13:00;;;;;;;14.48;5.95;;;12.10;99.90;;;;;;5020074;28;20044;-82
2023/05/28 01:15:26;;;;;;;13.63;5.00;;;12.10;99.90;;;;;;5019904;28;20459;-82
2023/05/28 01:18:00;;;;;;;12.48;5.20;;;12.00;99.90;;;;;;5020283;28;20037;-82
2023/05/28 01:20:30;;;;;;;13.70;5.63;;;11.90;99.90;;;;;;5019606;28;20033;-81
2023/05/28 01:23:01;;;;;;;16.48;6.13;;;11.90;99.90;;;;;;5020197;28;20119;-81
2023/05/28 01:25:27;;;;;;;13.38;5.45;;;11.90;99.90;;;;;;5036106;28;20124;-82
2023/05/28 01:27:53;;;;;;;14.32;5.65;;;11.90;99.90;;;;;;5019534;28;20128;-82
2023/05/28 01:30:20;;;;;;;13.63;5.22;;;11.90;99.90;;;;;;5019773;28;20041;-81
2023/05/28 01:32:46;;;;;;;17.08;6.85;;;11.90;99.90;;;;;;5003495;28;20445;-81
2023/05/28 01:35:12;;;;;;;13.00;5.30;;;11.80;99.90;;;;;;5003117;28;20083;-81
2023/05/28 01:37:45;;;;;;;19.70;6.05;;;11.80;99.90;;;;;;5003626;28;20044;-82
2023/05/28 01:40:12;;;;;;;12.18;5.88;;;11.70;99.90;;;;;;5019007;28;20047;-81
2023/05/28 01:42:38;;;;;;;15.10;5.53;;;11.70;99.90;;;;;;5003135;28;20045;-81
2023/05/28 01:45:05;;;;;;;17.73;5.80;;;11.60;99.90;;;;;;5019296;28;20059;-81
2023/05/28 01:47:32;;;;;;;15.88;5.70;;;11.60;99.90;;;;;;5035624;28;20051;-81
2023/05/28 01:49:57;;;;;;;19.77;6.05;;;11.60;99.90;;;;;;5002406;28;20076;-82
2023/05/28 01:52:23;;;;;;;12.65;5.65;;;11.70;99.90;;;;;;5002917;28;20084;-82
2023/05/28 01:54:49;;;;;;;16.23;5.15;;;11.70;99.90;;;;;;5019465;28;20037;-82
2023/05/28 01:57:15;;;;;;;16.27;5.55;;;11.70;99.90;;;;;;5019487;28;20059;-83
2023/05/28 01:59:40;;;;;;;16.85;5.55;;;11.80;99.90;;;;;;5019137;28;20120;-82
2023/05/28 02:02:07;;;;;;;16.63;6.07;;;11.80;99.90;;;;;;5022177;28;20485;-82
2023/05/28 02:04:33;;;;;;;17.65;5.65;;;11.80;99.90;;;;;;5024051;28;20045;-82
2023/05/28 02:06:59;;;;;;;15.40;5.55;;;11.90;99.90;;;;;;5019775;28;20056;-82
2023/05/28 02:09:25;;;;;;;16.42;5.78;;;11.90;99.90;;;;;;5003095;28;20482;-82
2023/05/28 02:11:51;;;;;;;16.17;5.75;;;11.80;99.90;;;;;;5002762;28;20037;-82
2023/05/28 02:14:17;;;;;;;12.88;6.10;;;11.70;99.90;;;;;;5018833;28;20045;-82
2023/05/28 02:16:48;;;;;;;12.50;5.20;;;11.70;99.90;;;;;;5002560;28;20127;-82
2023/05/28 02:19:14;;;;;;;16.70;5.10;;;11.70;99.90;;;;;;5018463;28;20048;-82
2023/05/28 02:21:39;;;;;;;13.60;5.10;;;11.60;99.90;;;;;;5002892;28;20469;-82
2023/05/28 02:24:06;;;;;;;17.98;5.80;;;11.70;99.90;;;;;;5018830;28;20141;-81
2023/05/28 02:26:32;;;;;;;16.42;5.18;;;11.60;99.90;;;;;;5035428;28;20037;-81
2023/05/28 02:28:57;;;;;;;18.58;6.70;;;11.60;99.90;;;;;;5002312;28;20504;-81
2023/05/28 02:31:23;;;;;;;16.27;5.88;;;11.60;99.90;;;;;;5002853;28;20107;-81
2023/05/28 02:33:49;;;;;;;12.63;5.90;;;11.60;99.90;;;;;;5018676;28;20045;-81
2023/05/28 02:36:15;;;;;;;12.15;6.35;;;11.60;99.90;;;;;;5019224;28;20086;-82
2023/05/28 02:38:42;;;;;;;13.38;6.18;;;11.50;99.90;;;;;;5002475;28;20041;-82
2023/05/28 02:41:08;;;;;;;12.23;5.40;;;11.50;99.90;;;;;;5035194;28;20396;-81
2023/05/28 02:43:34;;;;;;;16.02;5.82;;;11.50;99.90;;;;;;5034961;28;20079;-81
2023/05/28 02:46:00;;;;;;;14.65;6.10;;;11.50;99.90;;;;;;5001888;28;20088;-82
2023/05/28 02:48:26;;;;;;;12.77;5.47;;;11.40;99.90;;;;;;5001975;28;20046;-82
2023/05/28 02:50:52;;;;;;;16.08;6.70;;;11.40;99.90;;;;;;5018310;28;20076;-81
2023/05/28 02:53:20;;;;;;;16.42;6.45;;;11.30;99.90;;;;;;5020252;28;20123;-81
2023/05/28 02:55:46;;;;;;;15.05;5.85;;;11.30;99.90;;;;;;5022773;28;20080;-82
2023/05/28 02:58:12;;;;;;;15.73;6.05;;;11.30;99.90;;;;;;5006326;28;20083;-82
2023/05/28 03:00:39;;;;;;;16.02;6.28;;;11.20;99.90;;;;;;5038746;28;20044;-80
2023/05/28 03:03:05;;;;;;;18.02;6.07;;;11.10;99.90;;;;;;5039159;28;20393;-81
2023/05/28 03:05:33;;;;;;;20.02;5.80;;;11.20;99.90;;;;;;5022565;28;20048;-82
2023/05/28 03:07:59;;;;;;;14.23;5.57;;;11.20;99.90;;;;;;5006350;28;20029;-81
2023/05/28 03:10:25;;;;;;;16.63;5.93;;;11.10;99.90;;;;;;5022062;28;20098;-82
2023/05/28 03:12:50;;;;;;;15.15;5.70;;;11.10;99.90;;;;;;5005831;28;20045;-82
2023/05/28 03:15:16;;;;;;;14.55;5.35;;;11.20;99.90;;;;;;5006631;28;20051;-81
2023/05/28 03:17:42;;;;;;;19.67;5.88;;;11.20;99.90;;;;;;5046812;28;20043;-81
2023/05/28 03:20:10;;;;;;;14.10;5.60;;;11.20;99.90;;;;;;5008869;28;20041;-81
2023/05/28 03:22:36;;;;;;;19.95;6.15;;;11.20;99.90;;;;;;5006452;28;20033;-82
2023/05/28 03:25:05;;;;;;;16.15;5.90;;;11.20;99.90;;;;;;5005822;28;20044;-82
2023/05/28 03:27:32;;;;;;;14.80;5.82;;;11.20;99.90;;;;;;4989716;28;20048;-82
2023/05/28 03:29:58;;;;;;;19.00;5.88;;;11.20;99.90;;;;;;5022179;28;20049;-82
2023/05/28 03:32:24;;;;;;;13.48;5.22;;;11.20;99.90;;;;;;5022131;28;20080;-81
2023/05/28 03:34:50;;;;;;;13.95;5.40;;;11.20;99.90;;;;;;5021984;28;20079;-80
2023/05/28 03:37:15;;;;;;;18.60;6.07;;;11.20;99.90;;;;;;5038276;28;20128;-82
2023/05/28 03:39:41;;;;;;;19.10;5.28;;;11.20;99.90;;;;;;5021895;28;20045;-83
2023/05/28 03:42:07;;;;;;;13.40;5.03;;;11.20;99.90;;;;;;5021703;28;20119;-81
2023/05/28 03:44:34;;;;;;;16.10;5.28;;;11.30;99.90;;;;;;5021647;28;20106;-82
2023/05/28 03:47:00;;;;;;;14.80;5.15;;;11.30;99.90;;;;;;5021908;28;20106;-81
2023/05/28 03:49:26;;;;;;;13.55;5.07;;;11.30;99.90;;;;;;5021373;28;20033;-81
2023/05/28 03:51:52;;;;;;;14.70;5.38;;;11.30;99.90;;;;;;5021880;28;20102;-81
2023/05/28 03:54:17;;;;;;;12.85;5.25;;;11.30;99.90;;;;;;5005056;28;20047;-81
2023/05/28 03:56:43;;;;;;;15.65;5.28;;;11.30;99.90;;;;;;5005394;28;20041;-82
2023/05/28 03:59:09;;;;;;;10.30;4.88;;;11.30;99.90;;;;;;5021090;28;20041;-82
2023/05/28 04:01:36;;;;;;;14.70;5.00;;;11.30;99.90;;;;;;5005058;28;20124;-82
2023/05/28 04:04:02;;;;;;;22.30;6.47;;;11.20;99.90;;;;;;5004726;28;20493;-82
2023/05/28 04:06:28;;;;;;;15.27;5.80;;;11.20;99.90;;;;;;5037692;28;20037;-81
2023/05/28 04:08:55;;;;;;;16.70;5.97;;;11.20;99.90;;;;;;5021355;28;20041;-81
2023/05/28 04:11:24;;;;;;;14.93;5.30;;;11.20;99.90;;;;;;5021164;28;20045;-81
2023/05/28 04:13:51;;;;;;;16.85;6.25;;;11.10;99.90;;;;;;5021009;28;20080;-82
2023/05/28 04:16:16;;;;;;;17.63;6.15;;;11.10;99.90;;;;;;5004707;28;20045;-82
2023/05/28 04:18:42;;;;;;;14.10;5.60;;;11.10;99.90;;;;;;5020351;28;20052;-82
2023/05/28 04:21:08;;;;;;;13.07;5.40;;;11.00;99.90;;;;;;5020766;28;20393;-82
2023/05/28 04:23:34;;;;;;;12.80;5.47;;;11.00;99.90;;;;;;5021003;28;20044;-82
2023/05/28 04:26:00;;;;;;;14.77;5.82;;;11.00;99.90;;;;;;5004687;28;20069;-82
2023/05/28 04:28:27;;;;;;;13.68;5.45;;;11.00;99.90;;;;;;5021277;28;20068;-82
2023/05/28 04:30:55;;;;;;;14.52;5.70;;;11.00;99.90;;;;;;5009839;28;20037;-80
2023/05/28 04:33:23;;;;;;;15.82;5.57;;;11.00;99.90;;;;;;5029614;28;20043;-82
2023/05/28 04:35:50;;;;;;;11.65;5.25;;;11.00;99.90;;;;;;5021210;28;20090;-82
2023/05/28 04:38:17;;;;;;;18.45;5.68;;;11.10;99.90;;;;;;5020637;28;20507;-82
2023/05/28 04:40:42;;;;;;;17.60;6.00;;;11.10;99.90;;;;;;5005118;28;20389;-82
2023/05/28 04:43:08;;;;;;;19.27;6.00;;;11.10;99.90;;;;;;5004417;28;20033;-82
2023/05/28 04:45:34;;;;;;;17.70;5.68;;;11.10;99.90;;;;;;5003975;28;20060;-82
2023/05/28 04:48:01;;;;;;;17.42;5.10;;;11.20;99.90;;;;;;5020480;28;20174;-81
2023/05/28 04:50:27;;;;;;;14.75;5.05;;;11.20;99.90;;;;;;5004232;28;20075;-82
2023/05/28 04:52:52;;;;;;;14.70;5.10;;;11.20;99.90;;;;;;5004150;28;20076;-82
2023/05/28 04:55:18;;;;;;;15.18;6.15;;;11.30;99.90;;;;;;5004185;28;20048;-81
2023/05/28 04:57:44;;;;;;;13.40;4.78;;;11.30;99.90;;;;;;5004066;28;20537;-82
2023/05/28 05:00:13;;;;;;;10.30;5.30;;;11.40;99.90;;;;;;5004227;28;20037;-82
2023/05/28 05:02:42;;;;;;;14.70;5.40;;;11.40;99.90;;;;;;5004629;28;20053;-83
2023/05/28 05:05:08;;;;;;;12.38;5.22;;;11.50;99.90;;;;;;5020823;28;20033;-82
2023/05/28 05:07:37;;;;;;;13.68;5.00;;;11.50;99.90;;;;;;5004221;28;20048;-82
2023/05/28 05:10:08;;;;;;;16.10;5.72;;;11.60;99.90;;;;;;5019844;28;20072;-82
2023/05/28 05:12:34;;;;;;;12.50;5.10;;;11.60;99.90;;;;;;5020012;28;20037;-81
2023/05/28 05:14:59;;;;;;;13.43;5.80;;;11.70;99.90;;;;;;5003240;28;20316;-81
2023/05/28 05:17:26;;;;;;;14.18;5.97;;;11.70;99.90;;;;;;5019675;28;20485;-81
2023/05/28 05:19:52;;;;;;;13.20;5.70;;;11.80;99.90;;;;;;5019437;28;20045;-82
2023/05/28 05:22:18;;;;;;;15.57;5.43;;;11.80;99.90;;;;;;5003538;28;20039;-82
2023/05/28 05:24:46;;;;;;;16.05;5.50;;;11.90;99.90;;;;;;5003480;28;20117;-82
2023/05/28 05:27:15;;;;;;;15.90;6.07;;;11.90;99.90;;;;;;5037119;28;20099;-82
2023/05/28 05:29:41;;;;;;;14.32;5.60;;;12.00;99.90;;;;;;5019751;28;20063;-82
2023/05/28 05:32:09;;;;;;;17.95;5.93;;;12.00;99.90;;;;;;5003337;28;20040;-82
2023/05/28 05:34:35;;;;;;;14.40;5.80;;;12.00;99.90;;;;;;5036189;28;20053;-82
2023/05/28 05:37:00;;;;;;;16.75;5.70;;;12.10;99.90;;;;;;5003307;28;20048;-81
2023/05/28 05:39:26;;;;;;;14.93;5.70;;;12.10;99.90;;;;;;5003025;28;20037;-81
2023/05/28 05:41:53;;;;;;;18.92;6.60;;;12.10;99.90;;;;;;5019476;28;20033;-82
2023/05/28 05:44:18;;;;;;;16.00;5.43;;;12.20;99.90;;;;;;5022139;28;20041;-82
2023/05/28 05:46:44;;;;;;;15.70;5.38;;;12.20;99.90;;;;;;5041473;28;20048;-82
2023/05/28 05:49:10;;;;;;;14.27;5.60;;;12.20;99.90;;;;;;5021208;28;20572;-82
2023/05/28 05:51:36;;;;;;;15.35;5.68;;;12.20;99.90;;;;;;5003133;28;20041;-82
2023/05/28 05:54:05;;;;;;;14.45;5.80;;;12.30;99.90;;;;;;5002908;28;20060;-82
2023/05/28 05:56:31;;;;;;;11.43;5.43;;;12.30;99.90;;;;;;5003317;28;20094;-82
2023/05/28 05:58:58;;;;;;;13.07;5.70;;;12.40;99.90;;;;;;5019264;28;20041;-82
2023/05/28 06:01:24;;;;;;;16.60;6.25;;;12.50;99.90;;;;;;5019372;28;20040;-82
2023/05/28 06:03:50;;;;;;;13.48;5.65;;;12.50;99.90;;;;;;5002896;28;20102;-82
2023/05/28 06:06:16;;;;;;;17.65;5.63;;;12.50;99.90;;;;;;5019053;28;20044;-82
2023/05/28 06:08:42;;;;;;;14.18;5.80;;;12.60;99.90;;;;;;5019272;28;20043;-82
2023/05/28 06:11:09;;;;;;;13.75;5.25;;;12.60;99.90;;;;;;5002460;28;20481;-82
2023/05/28 06:13:35;;;;;;;12.68;5.03;;;12.70;99.90;;;;;;5018902;28;20099;-82
2023/05/28 06:16:02;;;;;;;12.68;5.85;;;12.70;99.90;;;;;;5002729;28;20127;-81
2023/05/28 06:18:29;;;;;;;14.60;5.57;;;12.80;99.90;;;;;;5002847;28;20437;-82
2023/05/28 06:20:55;;;;;;;17.05;5.18;;;12.90;99.90;;;;;;5019223;28;20029;-82
2023/05/28 06:23:21;;;;;;;13.43;5.13;;;12.90;99.90;;;;;;5018719;28;20556;-82
2023/05/28 06:25:47;;;;;;;12.00;5.15;;;13.10;99.90;;;;;;5002411;28;20064;-82
2023/05/28 06:28:13;;;;;;;11.55;4.82;;;13.10;99.90;;;;;;5002723;28;20044;-81
2023/05/28 06:30:40;;;;;;;18.17;5.30;;;13.20;99.90;;;;;;5002460;28;20071;-82
2023/05/28 06:33:05;;;;;;;11.25;4.70;;;13.30;99.90;;;;;;5018651;28;20051;-83
2023/05/28 06:35:31;;;;;;;14.23;5.25;;;13.40;99.90;;;;;;5018473;28;20033;-82
2023/05/28 06:37:57;;;;;;;15.05;5.32;;;13.40;99.90;;;;;;5018564;28;20129;-81
2023/05/28 06:40:23;;;;;;;12.60;4.63;;;13.50;99.90;;;;;;5001926;28;20219;-82
2023/05/28 06:42:49;;;;;;;11.98;4.72;;;13.60;99.90;;;;;;5018616;28;20614;-83
2023/05/28 06:45:15;;;;;;;17.05;5.45;;;13.80;99.90;;;;;;5001847;28;20055;-82
2023/05/28 06:47:41;;;;;;;15.02;5.47;;;14.00;99.90;;;;;;5035148;28;20040;-82
2023/05/28 06:50:06;;;;;;;13.55;5.72;;;14.10;99.90;;;;;;5001711;28;20033;-82
2023/05/28 06:52:32;;;;;;;12.98;5.57;;;14.40;99.90;;;;;;5018490;28;20049;-82
2023/05/28 06:54:58;;;;;;;14.10;5.25;;;14.60;99.90;;;;;;5018288;28;20111;-82
2023/05/28 06:57:23;;;;;;;11.73;5.13;;;14.90;99.90;;;;;;5002267;28;20048;-82
2023/05/28 06:59:50;;;;;;;17.63;5.25;;;15.10;99.90;;;;;;5004990;28;20049;-81
2023/05/28 07:02:15;;;;;;;16.10;5.05;;;15.30;99.90;;;;;;5004477;28;20037;-82
2023/05/28 07:04:41;;;;;;;12.85;4.70;;;15.40;99.90;;;;;;5002215;28;20041;-81
2023/05/28 07:07:07;;;;;;;14.95;5.45;;;15.70;99.90;;;;;;5018880;28;20033;-81
2023/05/28 07:09:34;;;;;;;13.75;4.90;;;15.90;99.90;;;;;;5002332;28;20441;-82
2023/05/28 07:12:00;;;;;;;16.25;5.10;;;16.20;99.90;;;;;;5002241;28;20041;-82
2023/05/28 07:14:26;;;;;;;11.23;4.40;;;16.40;99.90;;;;;;5018338;28;20056;-81
2023/05/28 07:16:52;;;;;;;12.43;4.70;;;16.50;99.90;;;;;;5018311;28;20041;-82
2023/05/28 07:19:17;;;;;;;13.05;5.13;;;16.70;99.90;;;;;;5001793;28;20521;-82
2023/05/28 07:21:45;;;;;;;13.77;4.80;;;16.80;99.90;;;;;;5002458;28;20084;-82
2023/05/28 07:24:11;;;;;;;11.45;4.70;;;17.10;99.90;;;;;;5018644;28;20133;-81
2023/05/28 07:26:37;;;;;;;13.85;4.82;;;17.30;99.90;;;;;;5018354;28;20488;-82
2023/05/28 07:29:02;;;;;;;9.18;4.60;;;17.70;99.90;;;;;;5002165;28;20037;-83
2023/05/28 07:31:29;;;;;;;10.18;4.05;;;17.90;99.90;;;;;;5001791;28;20041;-82
2023/05/28 07:33:55;;;;;;;14.95;4.68;;;18.20;99.90;;;;;;5002101;28;20522;-82
2023/05/28 07:36:21;;;;;;;21.13;5.68;;;18.40;99.90;;;;;;5002093;28;20048;-81
2023/05/28 07:38:47;;;;;;;13.88;4.75;;;18.60;99.90;;;;;;5002333;28;20382;-81
2023/05/28 07:41:12;;;;;;;11.90;4.53;;;18.80;99.90;;;;;;5005627;28;20130;-82
2023/05/28 07:43:38;;;;;;;10.63;4.18;;;19.00;99.90;;;;;;5005390;28;20392;-82
2023/05/28 07:46:05;;;;;;;12.88;4.57;;;19.10;99.90;;;;;;5021500;28;20057;-82
2023/05/28 07:48:30;;;;;;;13.77;4.57;;;19.30;99.90;;;;;;5021219;28;20136;-82
2023/05/28 07:50:56;;;;;;;13.18;4.78;;;19.50;99.90;;;;;;5005350;28;20129;-82
2023/05/28 07:53:23;;;;;;;8.23;4.55;;;19.50;99.90;;;;;;5005037;28;20037;-81
2023/05/28 07:55:48;;;;;;;18.05;6.07;;;19.60;99.90;;;;;;5005041;28;20121;-82
2023/05/28 07:58:14;;;;;;;11.27;4.63;;;19.60;99.90;;;;;;5021864;28;20120;-81
2023/05/28 08:00:40;;;;;;;16.27;5.93;;;19.60;99.90;;;;;;5021622;28;20045;-82
2023/05/28 08:03:06;;;;;;;13.63;5.57;;;19.50;99.90;;;;;;5005131;28;20437;-82
2023/05/28 08:05:32;;;;;;;12.05;5.03;;;19.40;99.90;;;;;;5021500;28;20060;-82
2023/05/28 08:07:59;;;;;;;13.43;5.15;;;19.40;99.90;;;;;;5037676;28;20040;-82
2023/05/28 08:10:25;;;;;;;13.50;5.43;;;19.40;99.90;;;;;;5021704;28;20448;-82
2023/05/28 08:12:50;;;;;;;9.32;4.75;;;19.40;99.90;;;;;;5005782;28;20119;-82
2023/05/28 08:15:16;;;;;;;12.82;4.85;;;19.50;99.90;;;;;;5005308;28;20511;-82
2023/05/28 08:17:42;;;;;;;10.73;4.68;;;19.70;99.90;;;;;;5021578;28;20084;-82
2023/05/28 08:20:09;;;;;;;14.60;5.32;;;19.90;99.90;;;;;;5004375;28;20068;-82
2023/05/28 08:22:36;;;;;;;13.90;5.35;;;20.10;99.90;;;;;;5004747;28;20485;-81
2023/05/28 08:25:02;;;;;;;12.52;5.43;;;20.20;99.90;;;;;;5005223;28;20045;-82
2023/05/28 08:27:28;;;;;;;13.15;5.05;;;20.30;99.90;;;;;;5021267;28;20389;-81
2023/05/28 08:29:53;;;;;;;12.10;5.28;;;20.30;99.90;;;;;;5020838;28;20036;-82
2023/05/28 08:32:19;;;;;;;14.13;5.78;;;20.50;99.90;;;;;;5020972;28;20130;-81
2023/05/28 08:34:45;;;;;;;13.57;5.88;;;20.50;99.90;;;;;;5021203;28;20056;-81
2023/05/28 08:37:12;;;;;;;11.75;4.82;;;20.50;99.90;;;;;;5021007;28;20048;-82
2023/05/28 08:39:38;;;;;;;12.55;5.25;;;20.50;99.90;;;;;;5004584;28;20509;-82
2023/05/28 08:42:04;;;;;;;12.77;5.20;;;20.50;99.90;;;;;;5021032;28;20048;-82
2023/05/28 08:44:30;;;;;;;12.45;5.43;;;20.50;99.60;;;;;;5004345;28;20040;-82
2023/05/28 08:46:56;;;;;;;13.90;5.97;;;20.50;99.30;;;;;;5004445;28;20053;-82
2023/05/28 08:49:32;;;;;;;14.05;6.00;;;20.40;99.20;;;;;;5020392;28;20040;-82
2023/05/28 08:52:02;;;;;;;11.88;5.40;;;20.40;98.20;;;;;;5019821;28;20045;-82
2023/05/28 08:54:29;;;;;;;12.38;5.05;;;20.50;99.30;;;;;;5020147;28;20076;-82
2023/05/28 08:56:55;;;;;;;13.48;5.70;;;20.60;99.10;;;;;;5020321;28;20037;-81
2023/05/28 08:59:22;;;;;;;12.13;5.43;;;20.70;98.90;;;;;;5019872;28;20123;-81
2023/05/28 09:01:50;;;;;;;14.10;5.78;;;20.80;98.40;;;;;;5020404;28;20408;-81
2023/05/28 09:04:15;;;;;;;12.93;5.07;;;20.90;98.30;;;;;;5036970;28;20041;-81
2023/05/28 09:06:41;;;;;;;14.25;5.28;;;21.00;98.50;;;;;;5003962;28;20384;-81
2023/05/28 09:09:11;;;;;;;10.85;5.22;;;21.10;98.40;;;;;;5003550;28;20520;-81
2023/05/28 09:11:37;;;;;;;11.20;5.13;;;21.00;97.60;;;;;;5004505;28;20405;-82
2023/05/28 09:14:12;;;;;;;14.57;5.15;;;21.00;97.50;;;;;;5020020;28;20037;-82
2023/05/28 09:16:42;;;;;;;12.52;5.45;;;21.00;97.30;;;;;;5019864;28;20052;-82
2023/05/28 09:19:08;;;;;;;10.25;4.88;;;21.20;98.00;;;;;;5019794;28;20041;-82
2023/05/28 09:21:34;;;;;;;13.05;5.30;;;21.50;97.90;;;;;;5003724;28;20124;-82
2023/05/28 09:24:00;;;;;;;18.35;6.50;;;21.70;98.10;;;;;;5036276;28;20041;-82
2023/05/28 09:26:33;;;;;;;10.80;5.75;;;21.90;97.40;;;;;;5019870;28;20041;-82
2023/05/28 09:28:59;;;;;;;11.40;5.20;;;21.90;96.30;;;;;;5005172;28;20108;-82
2023/05/28 09:31:32;;;;;;;13.05;5.65;;;21.90;96.90;;;;;;5006001;28;20045;-82
2023/05/28 09:34:02;;;;;;;14.32;6.20;;;21.90;96.10;;;;;;5004112;28;20181;-82
2023/05/28 09:36:32;;;;;;;15.00;6.30;;;21.80;96.20;;;;;;5020062;28;20044;-81
2023/05/28 09:38:58;;;;;;;11.50;5.20;;;21.80;96.10;;;;;;5003707;28;20051;-81
2023/05/28 09:41:34;;;;;;;15.15;6.10;;;21.80;96.40;;;;;;5019967;28;20044;-82
2023/05/28 09:44:05;;;;;;;12.50;5.97;;;21.80;95.20;;;;;;5004196;28;20037;-82
2023/05/28 09:46:35;;;;;;;14.43;5.40;;;21.70;95.40;;;;;;5019095;28;20144;-82
2023/05/28 09:49:02;;;;;;;13.98;5.90;;;21.60;95.80;;;;;;5003171;28;20037;-81
2023/05/28 09:51:31;;;;;;;9.65;4.53;;;21.50;96.00;;;;;;5019493;28;20048;-82
2023/05/28 09:54:03;;;;;;;13.13;5.20;;;21.50;96.50;;;;;;5003363;28;20469;-81
2023/05/28 09:56:33;;;;;;;12.30;5.32;;;21.60;96.10;;;;;;5035852;28;20048;-82
2023/05/28 09:59:01;;;;;;;11.18;4.82;;;21.60;96.40;;;;;;5002860;28;20041;-82
2023/05/28 10:01:58;;;;;;;7.97;4.47;;;21.50;96.20;;;;;;5002434;28;20477;-81
2023/05/28 10:04:35;;;;;;;9.13;4.50;;;21.60;94.40;;;;;;5036189;28;20045;-82
2023/05/28 10:07:03;;;;;;;13.73;5.30;;;21.60;95.00;;;;;;5035481;28;20048;-82
2023/05/28 10:09:31;;;;;;;14.70;5.05;;;21.50;94.60;;;;;;5019999;28;20072;-83
2023/05/28 10:12:09;;;;;;;9.50;5.03;;;21.40;95.10;;;;;;5035447;28;20041;-81
2023/05/28 10:14:36;;;;;;;10.70;5.05;;;21.40;94.50;;;;;;5018936;28;20124;-82
2023/05/28 10:17:02;;;;;;;12.25;5.25;;;21.40;93.90;;;;;;5002990;28;20159;-82
2023/05/28 10:19:29;;;;;;;12.40;4.95;;;21.20;93.70;;;;;;5018257;28;20501;-82
2023/05/28 10:21:56;;;;;;;12.40;4.90;;;21.10;93.60;;;;;;5018879;28;20040;-81
2023/05/28 10:24:22;;;;;;;10.60;4.72;;;21.00;93.90;;;;;;5002426;28;20033;-81
2023/05/28 10:26:48;;;;;;;13.10;5.10;;;21.00;93.80;;;;;;5002873;28;20178;-80
2023/05/28 10:29:13;;;;;;;11.70;4.68;;;20.90;93.60;;;;;;5018766;28;20580;-82
2023/05/28 10:31:39;;;;;;;11.70;4.70;;;20.90;93.60;;;;;;5018590;28;20045;-81
2023/05/28 10:34:15;;;;;;;12.80;5.00;;;20.90;93.50;;;;;;5002330;28;20037;-81
2023/05/28 10:36:53;;;;;;;9.30;4.20;;;20.90;93.40;;;;;;5002376;28;20103;-81
2023/05/28 10:39:19;;;;;;;11.77;5.05;;;20.90;93.40;;;;;;5018646;28;20085;-82
2023/05/28 10:41:45;;;;;;;9.73;4.43;;;20.90;93.40;;;;;;5002520;28;20486;-82
2023/05/28 10:44:11;;;;;;;10.27;4.82;;;20.90;92.30;;;;;;5010003;28;20044;-81
2023/05/28 10:46:40;;;;;;;11.55;4.80;;;20.90;92.00;;;;;;5004359;28;20053;-82
2023/05/28 10:49:15;;;;;;;12.98;4.70;;;20.90;91.00;;;;;;5018473;28;20041;-82
2023/05/28 10:51:56;;;;;;;8.20;4.15;;;20.80;91.30;;;;;;5018652;28;20045;-82
2023/05/28 10:54:24;;;;;;;10.50;4.90;;;20.90;90.90;;;;;;5018498;28;20079;-82
2023/05/28 10:57:13;;;;;;;12.85;5.25;;;20.90;90.70;;;;;;5018540;28;20493;-81
2023/05/28 10:59:46;;;;;;;8.02;3.95;;;20.90;89.70;;;;;;5034692;28;20132;-82
2023/05/28 11:02:21;;;;;;;10.75;4.47;;;20.90;90.10;;;;;;5018780;28;20047;-81
2023/05/28 11:04:53;;;;;;;9.07;4.22;;;21.00;89.20;;;;;;5018056;28;20098;-82
2023/05/28 11:07:21;;;;;;;9.48;4.72;;;21.10;88.60;;;;;;5018352;28;20128;-81
2023/05/28 11:09:49;;;;;;;11.73;4.80;;;21.10;88.50;;;;;;5018506;28;20041;-81
2023/05/28 11:12:15;;;;;;;9.45;4.40;;;21.20;89.60;;;;;;5018403;28;20076;-82
2023/05/28 11:14:41;;;;;;;11.13;4.47;;;21.30;89.60;;;;;;5004206;28;20519;-83
2023/05/28 11:17:11;;;;;;;9.13;4.30;;;21.30;88.80;;;;;;5005742;28;20045;-82
2023/05/28 11:19:45;;;;;;;9.60;4.22;;;21.40;87.60;;;;;;5021310;28;20041;-82
2023/05/28 11:22:12;;;;;;;11.88;5.05;;;21.40;85.20;;;;;;5005526;28;20155;-82
2023/05/28 11:24:55;;;;;;;10.73;4.15;;;21.50;87.50;;;;;;5005598;28;20041;-82
2023/05/28 11:27:26;;;;;;;8.98;4.60;;;21.50;84.40;;;;;;5021770;28;20040;-83
2023/05/28 11:29:55;;;;;;;7.78;4.10;;;21.60;85.00;;;;;;5021988;28;20392;-83
2023/05/28 11:32:22;;;;;;;10.23;4.20;;;21.60;85.10;;;;;;5021692;28;20095;-83
2023/05/28 11:34:50;;;;;;;8.95;4.43;;;21.70;85.20;;;;;;5005270;28;20052;-83
2023/05/28 11:37:16;;;;;;;7.28;3.80;;;21.80;84.70;;;;;;5005356;28;20087;-80
2023/05/28 11:39:52;;;;;;;6.78;3.90;;;21.80;84.00;;;;;;5038135;28;20037;-82
2023/05/28 11:42:22;;;;;;;10.45;3.92;;;21.90;82.80;;;;;;5021661;28;20086;-82
2023/05/28 11:44:48;;;;;;;10.73;4.07;;;22.00;81.60;;;;;;5021741;28;20381;-81
2023/05/28 11:47:15;;;;;;;7.80;3.75;;;22.10;82.40;;;;;;5021390;28;20044;-81
2023/05/28 11:49:41;;;;;;;8.00;4.07;;;22.20;82.80;;;;;;5004687;28;20481;-82
2023/05/28 11:52:15;;;;;;;6.25;3.97;;;22.30;82.20;;;;;;5021369;28;20041;-82
2023/05/28 11:54:44;;;;;;;7.30;3.90;;;22.30;80.30;;;;;;5021611;28;20134;-82
2023/05/28 11:57:10;;;;;;;6.55;4.03;;;22.30;80.00;;;;;;5022282;28;20041;-82
2023/05/28 11:59:36;;;;;;;6.57;3.60;;;22.30;77.40;;;;;;5009022;28;20128;-82
2023/05/28 12:02:10;;;;;;;6.85;4.03;;;22.40;77.70;;;;;;5022511;28;20435;-83
2023/05/28 12:04:36;;;;;;;5.60;3.55;;;22.40;75.90;;;;;;5021538;28;20124;-82
2023/05/28 12:07:01;;;;;;;7.38;3.78;;;22.40;75.50;;;;;;5005065;28;20120;-83
2023/05/28 12:09:27;;;;;;;5.40;3.47;;;22.40;75.00;;;;;;5020941;28;20052;-82
2023/05/28 12:12:12;;;;;;;6.78;3.67;;;22.50;74.60;;;;;;5037454;28;20095;-82
2023/05/28 12:14:38;;;;;;;8.02;4.10;;;22.60;72.50;;;;;;5020927;28;20480;-81
2023/05/28 12:17:06;;;;;;;8.05;4.22;;;22.50;70.90;;;;;;5005136;28;20114;-82
2023/05/28 12:19:33;;;;;;;6.00;4.00;;;22.50;70.00;;;;;;5037577;28;20067;-81
2023/05/28 12:21:59;;;;;;;6.60;4.20;;;22.60;68.90;;;;;;5021554;28;20041;-82
2023/05/28 12:24:27;;;;;;;7.50;4.25;;;22.70;69.80;;;;;;5004677;28;20683;-82
2023/05/28 12:26:53;;;;;;;7.93;4.18;;;22.80;69.40;;;;;;5021071;28;20167;-82
2023/05/28 12:29:19;;;;;;;6.50;4.22;;;22.90;68.40;;;;;;5004933;28;20098;-81
2023/05/28 12:31:44;;;;;;;5.78;4.13;;;23.00;66.80;;;;;;5021062;28;20045;-82
2023/05/28 12:34:11;;;;;;;7.20;4.15;;;23.10;66.80;;;;;;5021074;28;20049;-81
2023/05/28 12:36:36;;;;;;;6.28;4.38;;;23.30;66.80;;;;;;5020955;28;20400;-81
2023/05/28 12:39:04;;;;;;;8.05;4.80;;;23.60;66.00;;;;;;5004435;28;20132;-82